Battleground, Washington
Current Conditions -  °F | °C
As of 10:53 AM on Saturday 25 Oct 2014 (Local Time) from KVUO Reporting Station
Overcast Overcast  
Wind Chill: 58°   Ceiling: 8500
Heat Index: 58°   Visibility: 10mi
Dew Point: 51°   Wind: 0mph
Humidity: 78%   Direction: NA
Pressure: 29.4"   Gusts: NA
Location:  45.8003°N, 122.498°W
Report Text: KVUO 251753Z AUTO 00000KT 10SM BKN085 OVC110 14/11 A2940 RMK AO2 SLP956 60007 T01440106 10144 20078 58045
Loading
Personal Weather Stations






























Interactive Weather Map
Tropical Storm Tracking
New forecast layout! Learn more

10-Day Weather Forecast

Advertisements
Track Severe Weather on mobile